sensor_id;sensor_type;location;lat;lon;timestamp;temperature;humidity
78733;DHT22;68056;52.530;5.454;2023-04-03T00:01:17;4.10;59.70
78733;DHT22;68056;52.530;5.454;2023-04-03T00:03:43;4.10;59.80
78733;DHT22;68056;52.530;5.454;2023-04-03T00:06:12;4.00;59.80
78733;DHT22;68056;52.530;5.454;2023-04-03T00:08:38;4.00;59.90
78733;DHT22;68056;52.530;5.454;2023-04-03T00:11:05;4.00;59.90
78733;DHT22;68056;52.530;5.454;2023-04-03T00:13:32;4.00;60.00
78733;DHT22;68056;52.530;5.454;2023-04-03T00:15:58;4.00;60.00
78733;DHT22;68056;52.530;5.454;2023-04-03T00:18:23;4.00;59.90
78733;DHT22;68056;52.530;5.454;2023-04-03T00:20:49;4.00;59.90
78733;DHT22;68056;52.530;5.454;2023-04-03T00:23:17;4.00;59.90
78733;DHT22;68056;52.530;5.454;2023-04-03T00:25:43;4.00;59.90
78733;DHT22;68056;52.530;5.454;2023-04-03T00:28:12;4.00;59.80
78733;DHT22;68056;52.530;5.454;2023-04-03T00:30:38;4.00;59.80
78733;DHT22;68056;52.530;5.454;2023-04-03T00:33:05;4.00;59.70
78733;DHT22;68056;52.530;5.454;2023-04-03T00:35:30;4.00;59.80
78733;DHT22;68056;52.530;5.454;2023-04-03T00:37:56;4.00;59.80
78733;DHT22;68056;52.530;5.454;2023-04-03T00:40:26;4.10;59.80
78733;DHT22;68056;52.530;5.454;2023-04-03T00:42:56;4.00;59.80
78733;DHT22;68056;52.530;5.454;2023-04-03T00:45:35;4.10;59.80
78733;DHT22;68056;52.530;5.454;2023-04-03T00:48:04;4.10;59.80
78733;DHT22;68056;52.530;5.454;2023-04-03T00:50:32;4.10;59.70
78733;DHT22;68056;52.530;5.454;2023-04-03T00:53:00;4.10;59.80
78733;DHT22;68056;52.530;5.454;2023-04-03T00:55:26;4.10;59.80
78733;DHT22;68056;52.530;5.454;2023-04-03T00:57:53;4.10;59.80
78733;DHT22;68056;52.530;5.454;2023-04-03T01:00:20;4.10;59.80
78733;DHT22;68056;52.530;5.454;2023-04-03T01:02:48;4.10;59.90
78733;DHT22;68056;52.530;5.454;2023-04-03T01:05:17;4.00;59.70
78733;DHT22;68056;52.530;5.454;2023-04-03T01:07:45;4.00;59.80
78733;DHT22;68056;52.530;5.454;2023-04-03T01:10:12;4.00;59.80
78733;DHT22;68056;52.530;5.454;2023-04-03T01:12:41;4.00;59.80
78733;DHT22;68056;52.530;5.454;2023-04-03T01:15:09;4.00;59.80
78733;DHT22;68056;52.530;5.454;2023-04-03T01:17:42;4.00;59.90
78733;DHT22;68056;52.530;5.454;2023-04-03T01:25:31;3.90;60.00
78733;DHT22;68056;52.530;5.454;2023-04-03T01:27:57;3.90;60.00
78733;DHT22;68056;52.530;5.454;2023-04-03T01:30:27;3.90;60.00
78733;DHT22;68056;52.530;5.454;2023-04-03T01:32:55;3.90;60.00
78733;DHT22;68056;52.530;5.454;2023-04-03T01:35:21;3.90;60.00
78733;DHT22;68056;52.530;5.454;2023-04-03T01:37:46;3.90;60.00
78733;DHT22;68056;52.530;5.454;2023-04-03T01:40:12;3.90;60.00
78733;DHT22;68056;52.530;5.454;2023-04-03T01:42:38;3.90;60.00
78733;DHT22;68056;52.530;5.454;2023-04-03T01:45:03;3.80;60.10
78733;DHT22;68056;52.530;5.454;2023-04-03T01:47:32;3.80;60.10
78733;DHT22;68056;52.530;5.454;2023-04-03T01:49:58;3.70;60.10
78733;DHT22;68056;52.530;5.454;2023-04-03T01:52:24;3.70;60.20
78733;DHT22;68056;52.530;5.454;2023-04-03T01:54:49;3.70;60.20
78733;DHT22;68056;52.530;5.454;2023-04-03T01:57:16;3.60;60.30
78733;DHT22;68056;52.530;5.454;2023-04-03T01:59:42;3.60;60.40
78733;DHT22;68056;52.530;5.454;2023-04-03T02:02:07;3.60;60.40
78733;DHT22;68056;52.530;5.454;2023-04-03T02:04:33;3.60;60.40
78733;DHT22;68056;52.530;5.454;2023-04-03T02:06:58;3.60;60.40
78733;DHT22;68056;52.530;5.454;2023-04-03T02:09:24;3.50;60.40
78733;DHT22;68056;52.530;5.454;2023-04-03T02:11:49;3.50;60.40
78733;DHT22;68056;52.530;5.454;2023-04-03T02:14:15;3.50;60.40
78733;DHT22;68056;52.530;5.454;2023-04-03T02:16:41;3.50;60.50
78733;DHT22;68056;52.530;5.454;2023-04-03T02:19:06;3.50;60.50
78733;DHT22;68056;52.530;5.454;2023-04-03T02:21:32;3.50;60.50
78733;DHT22;68056;52.530;5.454;2023-04-03T02:23:58;3.50;60.50
78733;DHT22;68056;52.530;5.454;2023-04-03T02:26:23;3.40;60.60
78733;DHT22;68056;52.530;5.454;2023-04-03T02:28:49;3.30;60.60
78733;DHT22;68056;52.530;5.454;2023-04-03T02:31:14;3.30;60.70
78733;DHT22;68056;52.530;5.454;2023-04-03T02:33:40;3.30;60.70
78733;DHT22;68056;52.530;5.454;2023-04-03T02:36:07;3.30;60.80
78733;DHT22;68056;52.530;5.454;2023-04-03T02:38:36;3.30;60.70
78733;DHT22;68056;52.530;5.454;2023-04-03T02:41:09;3.30;60.80
78733;DHT22;68056;52.530;5.454;2023-04-03T02:43:36;3.30;60.80
78733;DHT22;68056;52.530;5.454;2023-04-03T02:46:01;3.20;60.90
78733;DHT22;68056;52.530;5.454;2023-04-03T02:48:27;3.10;61.00
78733;DHT22;68056;52.530;5.454;2023-04-03T02:50:53;3.10;61.10
78733;DHT22;68056;52.530;5.454;2023-04-03T02:53:19;3.10;61.30
78733;DHT22;68056;52.530;5.454;2023-04-03T02:55:45;3.00;61.30
78733;DHT22;68056;52.530;5.454;2023-04-03T02:58:12;3.00;61.30
78733;DHT22;68056;52.530;5.454;2023-04-03T03:00:38;3.00;61.20
78733;DHT22;68056;52.530;5.454;2023-04-03T03:03:04;3.00;61.20
78733;DHT22;68056;52.530;5.454;2023-04-03T03:05:29;3.00;61.30
78733;DHT22;68056;52.530;5.454;2023-04-03T03:07:55;3.00;61.20
78733;DHT22;68056;52.530;5.454;2023-04-03T03:10:21;3.00;61.30
78733;DHT22;68056;52.530;5.454;2023-04-03T03:12:53;3.00;61.30
78733;DHT22;68056;52.530;5.454;2023-04-03T03:15:18;2.90;61.30
78733;DHT22;68056;52.530;5.454;2023-04-03T03:17:44;2.90;61.40
78733;DHT22;68056;52.530;5.454;2023-04-03T03:20:13;2.90;61.40
78733;DHT22;68056;52.530;5.454;2023-04-03T03:22:40;2.80;61.40
78733;DHT22;68056;52.530;5.454;2023-04-03T03:25:15;2.80;61.60
78733;DHT22;68056;52.530;5.454;2023-04-03T03:27:41;2.80;61.60
78733;DHT22;68056;52.530;5.454;2023-04-03T03:30:07;2.80;61.70
78733;DHT22;68056;52.530;5.454;2023-04-03T03:32:32;2.70;61.70
78733;DHT22;68056;52.530;5.454;2023-04-03T03:34:58;2.70;61.70
78733;DHT22;68056;52.530;5.454;2023-04-03T03:37:24;2.70;61.80
78733;DHT22;68056;52.530;5.454;2023-04-03T03:39:49;2.70;61.80
78733;DHT22;68056;52.530;5.454;2023-04-03T03:42:15;2.70;61.80
78733;DHT22;68056;52.530;5.454;2023-04-03T03:44:40;2.70;61.80
78733;DHT22;68056;52.530;5.454;2023-04-03T03:47:12;2.60;61.80
78733;DHT22;68056;52.530;5.454;2023-04-03T03:49:38;2.50;62.00
78733;DHT22;68056;52.530;5.454;2023-04-03T03:52:03;2.50;62.00
78733;DHT22;68056;52.530;5.454;2023-04-03T03:54:29;2.50;62.00
78733;DHT22;68056;52.530;5.454;2023-04-03T03:56:55;2.50;62.00
78733;DHT22;68056;52.530;5.454;2023-04-03T03:59:20;2.50;62.10
78733;DHT22;68056;52.530;5.454;2023-04-03T04:01:46;2.50;62.10
78733;DHT22;68056;52.530;5.454;2023-04-03T04:04:12;2.50;62.20
78733;DHT22;68056;52.530;5.454;2023-04-03T04:06:37;2.50;62.20
78733;DHT22;68056;52.530;5.454;2023-04-03T04:09:03;2.40;62.20
78733;DHT22;68056;52.530;5.454;2023-04-03T04:11:29;2.40;62.20
78733;DHT22;68056;52.530;5.454;2023-04-03T04:13:54;2.40;62.30
78733;DHT22;68056;52.530;5.454;2023-04-03T04:16:20;2.40;62.20
78733;DHT22;68056;52.530;5.454;2023-04-03T04:18:45;2.30;62.30
78733;DHT22;68056;52.530;5.454;2023-04-03T04:21:11;2.30;62.40
78733;DHT22;68056;52.530;5.454;2023-04-03T04:23:36;2.30;62.40
78733;DHT22;68056;52.530;5.454;2023-04-03T04:26:02;2.30;62.40
78733;DHT22;68056;52.530;5.454;2023-04-03T04:28:28;2.30;62.50
78733;DHT22;68056;52.530;5.454;2023-04-03T04:30:53;2.30;62.50
78733;DHT22;68056;52.530;5.454;2023-04-03T04:33:19;2.20;62.50
78733;DHT22;68056;52.530;5.454;2023-04-03T04:35:47;2.30;62.50
78733;DHT22;68056;52.530;5.454;2023-04-03T04:38:13;2.20;62.50
78733;DHT22;68056;52.530;5.454;2023-04-03T04:40:39;2.20;62.60
78733;DHT22;68056;52.530;5.454;2023-04-03T04:43:05;2.20;62.60
78733;DHT22;68056;52.530;5.454;2023-04-03T04:45:31;2.20;62.60
78733;DHT22;68056;52.530;5.454;2023-04-03T04:47:56;2.20;62.60
78733;DHT22;68056;52.530;5.454;2023-04-03T04:50:22;2.20;62.60
78733;DHT22;68056;52.530;5.454;2023-04-03T04:52:48;2.20;62.60
78733;DHT22;68056;52.530;5.454;2023-04-03T04:55:13;2.20;62.70
78733;DHT22;68056;52.530;5.454;2023-04-03T04:57:39;2.10;62.70
78733;DHT22;68056;52.530;5.454;2023-04-03T05:00:05;2.10;62.80
78733;DHT22;68056;52.530;5.454;2023-04-03T05:02:31;2.00;62.80
78733;DHT22;68056;52.530;5.454;2023-04-03T05:04:57;2.00;62.80
78733;DHT22;68056;52.530;5.454;2023-04-03T05:07:24;2.00;62.90
78733;DHT22;68056;52.530;5.454;2023-04-03T05:09:50;2.00;62.90
78733;DHT22;68056;52.530;5.454;2023-04-03T05:12:16;2.00;62.90
78733;DHT22;68056;52.530;5.454;2023-04-03T05:14:41;2.00;62.90
78733;DHT22;68056;52.530;5.454;2023-04-03T05:17:07;2.00;62.90
78733;DHT22;68056;52.530;5.454;2023-04-03T05:19:33;2.00;63.00
78733;DHT22;68056;52.530;5.454;2023-04-03T05:22:01;2.00;63.00
78733;DHT22;68056;52.530;5.454;2023-04-03T05:24:27;2.00;63.00
78733;DHT22;68056;52.530;5.454;2023-04-03T05:26:53;2.00;63.00
78733;DHT22;68056;52.530;5.454;2023-04-03T05:29:26;2.00;63.00
78733;DHT22;68056;52.530;5.454;2023-04-03T05:31:52;1.90;63.00
78733;DHT22;68056;52.530;5.454;2023-04-03T05:34:17;1.90;63.00
78733;DHT22;68056;52.530;5.454;2023-04-03T05:36:43;1.90;63.00
78733;DHT22;68056;52.530;5.454;2023-04-03T05:39:09;1.90;63.00
78733;DHT22;68056;52.530;5.454;2023-04-03T05:41:34;1.90;63.10
78733;DHT22;68056;52.530;5.454;2023-04-03T05:44:00;1.90;63.10
78733;DHT22;68056;52.530;5.454;2023-04-03T05:46:26;1.90;63.10
78733;DHT22;68056;52.530;5.454;2023-04-03T05:48:55;1.90;63.10
78733;DHT22;68056;52.530;5.454;2023-04-03T05:51:31;1.90;63.20
78733;DHT22;68056;52.530;5.454;2023-04-03T05:54:04;1.90;63.20
78733;DHT22;68056;52.530;5.454;2023-04-03T05:56:31;1.90;63.20
78733;DHT22;68056;52.530;5.454;2023-04-03T05:58:56;1.90;63.20
78733;DHT22;68056;52.530;5.454;2023-04-03T06:01:22;1.90;63.20
78733;DHT22;68056;52.530;5.454;2023-04-03T06:03:48;1.90;63.20
78733;DHT22;68056;52.530;5.454;2023-04-03T06:06:14;1.90;63.20
78733;DHT22;68056;52.530;5.454;2023-04-03T06:08:40;1.90;63.30
78733;DHT22;68056;52.530;5.454;2023-04-03T06:11:06;1.90;63.30
78733;DHT22;68056;52.530;5.454;2023-04-03T06:13:34;1.90;63.40
78733;DHT22;68056;52.530;5.454;2023-04-03T06:16:00;2.00;63.40
78733;DHT22;68056;52.530;5.454;2023-04-03T06:18:46;2.00;63.30
78733;DHT22;68056;52.530;5.454;2023-04-03T06:21:21;2.20;63.20
78733;DHT22;68056;52.530;5.454;2023-04-03T06:23:46;2.40;62.90
78733;DHT22;68056;52.530;5.454;2023-04-03T06:26:12;2.50;62.70
78733;DHT22;68056;52.530;5.454;2023-04-03T06:28:38;2.90;62.50
78733;DHT22;68056;52.530;5.454;2023-04-03T06:31:03;3.10;62.20
78733;DHT22;68056;52.530;5.454;2023-04-03T06:33:29;3.40;61.90
78733;DHT22;68056;52.530;5.454;2023-04-03T06:35:58;3.70;61.50
78733;DHT22;68056;52.530;5.454;2023-04-03T06:38:24;4.00;61.20
78733;DHT22;68056;52.530;5.454;2023-04-03T06:40:50;4.30;60.90
78733;DHT22;68056;52.530;5.454;2023-04-03T06:43:17;4.50;60.70
78733;DHT22;68056;52.530;5.454;2023-04-03T06:45:46;4.70;60.50
78733;DHT22;68056;52.530;5.454;2023-04-03T06:48:12;4.90;60.20
78733;DHT22;68056;52.530;5.454;2023-04-03T06:50:38;5.00;59.90
78733;DHT22;68056;52.530;5.454;2023-04-03T06:53:04;5.00;59.90
78733;DHT22;68056;52.530;5.454;2023-04-03T06:55:29;5.10;59.70
78733;DHT22;68056;52.530;5.454;2023-04-03T06:57:55;5.30;59.70
78733;DHT22;68056;52.530;5.454;2023-04-03T07:00:21;5.50;59.50
78733;DHT22;68056;52.530;5.454;2023-04-03T07:02:47;5.80;59.10
78733;DHT22;68056;52.530;5.454;2023-04-03T07:05:12;5.90;58.90
78733;DHT22;68056;52.530;5.454;2023-04-03T07:07:39;6.00;58.80
78733;DHT22;68056;52.530;5.454;2023-04-03T07:10:05;6.10;58.80
78733;DHT22;68056;52.530;5.454;2023-04-03T07:12:31;6.40;58.60
78733;DHT22;68056;52.530;5.454;2023-04-03T07:15:00;6.60;58.40
78733;DHT22;68056;52.530;5.454;2023-04-03T07:17:32;6.80;58.00
78733;DHT22;68056;52.530;5.454;2023-04-03T07:20:10;6.90;57.80
78733;DHT22;68056;52.530;5.454;2023-04-03T07:22:37;7.10;57.70
78733;DHT22;68056;52.530;5.454;2023-04-03T07:25:03;7.30;57.60
78733;DHT22;68056;52.530;5.454;2023-04-03T07:27:28;7.50;57.30
78733;DHT22;68056;52.530;5.454;2023-04-03T07:29:54;7.80;57.10
78733;DHT22;68056;52.530;5.454;2023-04-03T07:32:21;8.10;56.60
78733;DHT22;68056;52.530;5.454;2023-04-03T07:34:47;8.20;56.50
78733;DHT22;68056;52.530;5.454;2023-04-03T07:37:12;8.30;56.20
78733;DHT22;68056;52.530;5.454;2023-04-03T07:39:38;8.40;56.10
78733;DHT22;68056;52.530;5.454;2023-04-03T07:42:03;8.50;56.00
78733;DHT22;68056;52.530;5.454;2023-04-03T07:44:29;8.70;55.70
78733;DHT22;68056;52.530;5.454;2023-04-03T07:46:55;8.90;55.50
78733;DHT22;68056;52.530;5.454;2023-04-03T07:49:22;8.90;55.10
78733;DHT22;68056;52.530;5.454;2023-04-03T07:51:51;8.90;55.10
78733;DHT22;68056;52.530;5.454;2023-04-03T07:54:30;9.00;55.20
78733;DHT22;68056;52.530;5.454;2023-04-03T07:56:56;9.20;54.80
78733;DHT22;68056;52.530;5.454;2023-04-03T07:59:22;9.40;54.30
78733;DHT22;68056;52.530;5.454;2023-04-03T08:01:48;9.40;54.20
78733;DHT22;68056;52.530;5.454;2023-04-03T08:04:16;9.50;54.00
78733;DHT22;68056;52.530;5.454;2023-04-03T08:06:42;9.60;53.70
78733;DHT22;68056;52.530;5.454;2023-04-03T08:09:07;9.70;53.70
78733;DHT22;68056;52.530;5.454;2023-04-03T08:11:33;10.00;53.70
78733;DHT22;68056;52.530;5.454;2023-04-03T08:14:02;10.20;53.10
78733;DHT22;68056;52.530;5.454;2023-04-03T08:16:28;10.30;52.40
78733;DHT22;68056;52.530;5.454;2023-04-03T08:18:54;10.30;52.30
78733;DHT22;68056;52.530;5.454;2023-04-03T08:21:20;10.40;52.50
78733;DHT22;68056;52.530;5.454;2023-04-03T08:23:48;10.60;52.40
78733;DHT22;68056;52.530;5.454;2023-04-03T08:26:17;10.90;52.30
78733;DHT22;68056;52.530;5.454;2023-04-03T08:28:43;11.10;52.00
78733;DHT22;68056;52.530;5.454;2023-04-03T08:31:12;11.50;51.60
78733;DHT22;68056;52.530;5.454;2023-04-03T08:33:39;11.70;51.40
78733;DHT22;68056;52.530;5.454;2023-04-03T08:36:06;11.70;50.90
78733;DHT22;68056;52.530;5.454;2023-04-03T08:38:44;11.90;51.20
78733;DHT22;68056;52.530;5.454;2023-04-03T08:41:35;12.00;50.60
78733;DHT22;68056;52.530;5.454;2023-04-03T08:49:51;12.40;50.10
78733;DHT22;68056;52.530;5.454;2023-04-03T08:52:22;12.50;49.50
78733;DHT22;68056;52.530;5.454;2023-04-03T08:54:53;12.30;48.70
78733;DHT22;68056;52.530;5.454;2023-04-03T08:57:29;12.30;49.20
78733;DHT22;68056;52.530;5.454;2023-04-03T08:59:58;12.50;48.90
78733;DHT22;68056;52.530;5.454;2023-04-03T09:02:46;12.90;48.90
78733;DHT22;68056;52.530;5.454;2023-04-03T09:05:15;13.20;48.30
78733;DHT22;68056;52.530;5.454;2023-04-03T09:08:16;13.30;47.70
78733;DHT22;68056;52.530;5.454;2023-04-03T09:10:49;13.30;47.80
78733;DHT22;68056;52.530;5.454;2023-04-03T09:13:35;13.50;47.70
78733;DHT22;68056;52.530;5.454;2023-04-03T09:16:20;13.70;47.30
78733;DHT22;68056;52.530;5.454;2023-04-03T09:18:57;13.80;47.20
78733;DHT22;68056;52.530;5.454;2023-04-03T09:21:29;14.00;47.20
78733;DHT22;68056;52.530;5.454;2023-04-03T09:23:59;14.30;47.00
78733;DHT22;68056;52.530;5.454;2023-04-03T09:26:35;14.40;46.10
78733;DHT22;68056;52.530;5.454;2023-04-03T09:29:06;14.30;45.40
78733;DHT22;68056;52.530;5.454;2023-04-03T09:34:13;14.40;45.60
78733;DHT22;68056;52.530;5.454;2023-04-03T09:39:19;14.90;45.60
78733;DHT22;68056;52.530;5.454;2023-04-03T09:42:03;15.20;45.40
78733;DHT22;68056;52.530;5.454;2023-04-03T09:44:35;15.50;44.90
78733;DHT22;68056;52.530;5.454;2023-04-03T09:47:24;15.60;45.10
78733;DHT22;68056;52.530;5.454;2023-04-03T09:49:49;15.80;44.80
78733;DHT22;68056;52.530;5.454;2023-04-03T09:52:22;15.80;44.00
78733;DHT22;68056;52.530;5.454;2023-04-03T09:54:48;15.60;43.60
78733;DHT22;68056;52.530;5.454;2023-04-03T09:57:14;15.60;43.80
78733;DHT22;68056;52.530;5.454;2023-04-03T09:59:59;15.70;43.90
78733;DHT22;68056;52.530;5.454;2023-04-03T10:02:34;15.80;42.80
78733;DHT22;68056;52.530;5.454;2023-04-03T10:04:59;15.60;42.20
78733;DHT22;68056;52.530;5.454;2023-04-03T10:07:34;15.10;41.80
78733;DHT22;68056;52.530;5.454;2023-04-03T10:10:19;14.80;41.60
78733;DHT22;68056;52.530;5.454;2023-04-03T10:12:45;14.60;41.20
78733;DHT22;68056;52.530;5.454;2023-04-03T10:15:16;14.40;41.10
78733;DHT22;68056;52.530;5.454;2023-04-03T10:17:56;14.40;41.20
78733;DHT22;68056;52.530;5.454;2023-04-03T10:20:44;14.70;41.40
78733;DHT22;68056;52.530;5.454;2023-04-03T10:23:26;14.90;41.00
78733;DHT22;68056;52.530;5.454;2023-04-03T10:26:08;14.80;40.10
78733;DHT22;68056;52.530;5.454;2023-04-03T10:29:06;14.60;39.30
78733;DHT22;68056;52.530;5.454;2023-04-03T10:31:53;14.40;39.70
78733;DHT22;68056;52.530;5.454;2023-04-03T10:39:52;14.40;39.90
78733;DHT22;68056;52.530;5.454;2023-04-03T10:42:48;14.80;39.50
78733;DHT22;68056;52.530;5.454;2023-04-03T10:47:50;15.40;39.30
78733;DHT22;68056;52.530;5.454;2023-04-03T10:50:40;15.50;39.70
78733;DHT22;68056;52.530;5.454;2023-04-03T10:58:33;16.10;39.30
78733;DHT22;68056;52.530;5.454;2023-04-03T11:01:06;16.00;38.70
78733;DHT22;68056;52.530;5.454;2023-04-03T11:03:36;15.80;38.30
78733;DHT22;68056;52.530;5.454;2023-04-03T11:06:08;15.60;38.40
78733;DHT22;68056;52.530;5.454;2023-04-03T11:08:50;15.40;38.50
78733;DHT22;68056;52.530;5.454;2023-04-03T11:11:26;15.30;38.30
78733;DHT22;68056;52.530;5.454;2023-04-03T11:14:29;15.10;38.30
78733;DHT22;68056;52.530;5.454;2023-04-03T11:17:15;14.90;38.30
78733;DHT22;68056;52.530;5.454;2023-04-03T11:20:01;14.80;38.70
78733;DHT22;68056;52.530;5.454;2023-04-03T11:22:42;15.00;39.10
78733;DHT22;68056;52.530;5.454;2023-04-03T11:30:23;15.20;38.80
78733;DHT22;68056;52.530;5.454;2023-04-03T11:35:53;15.30;38.50
78733;DHT22;68056;52.530;5.454;2023-04-03T11:38:48;15.30;38.40
78733;DHT22;68056;52.530;5.454;2023-04-03T11:41:16;15.40;38.50
78733;DHT22;68056;52.530;5.454;2023-04-03T11:43:56;15.50;38.70
78733;DHT22;68056;52.530;5.454;2023-04-03T11:46:23;15.70;38.70
78733;DHT22;68056;52.530;5.454;2023-04-03T11:52:12;16.10;39.10
78733;DHT22;68056;52.530;5.454;2023-04-03T11:57:44;16.40;38.30
78733;DHT22;68056;52.530;5.454;2023-04-03T12:05:50;16.20;38.60
78733;DHT22;68056;52.530;5.454;2023-04-03T12:13:53;16.40;38.00
78733;DHT22;68056;52.530;5.454;2023-04-03T12:18:58;16.30;38.00
78733;DHT22;68056;52.530;5.454;2023-04-03T12:34:42;16.10;39.10
78733;DHT22;68056;52.530;5.454;2023-04-03T12:43:27;16.70;38.90
78733;DHT22;68056;52.530;5.454;2023-04-03T12:46:09;16.60;38.50
78733;DHT22;68056;52.530;5.454;2023-04-03T12:48:58;16.40;38.40
78733;DHT22;68056;52.530;5.454;2023-04-03T12:51:49;16.40;38.60
78733;DHT22;68056;52.530;5.454;2023-04-03T12:54:35;16.30;38.50
78733;DHT22;68056;52.530;5.454;2023-04-03T12:57:11;16.20;38.50
78733;DHT22;68056;52.530;5.454;2023-04-03T12:59:37;16.20;38.80
78733;DHT22;68056;52.530;5.454;2023-04-03T13:02:15;16.30;38.90
78733;DHT22;68056;52.530;5.454;2023-04-03T13:04:42;16.40;38.90
78733;DHT22;68056;52.530;5.454;2023-04-03T13:07:20;16.40;38.50
78733;DHT22;68056;52.530;5.454;2023-04-03T13:09:55;16.40;38.70
78733;DHT22;68056;52.530;5.454;2023-04-03T13:12:21;16.40;38.10
78733;DHT22;68056;52.530;5.454;2023-04-03T13:14:56;16.30;38.10
78733;DHT22;68056;52.530;5.454;2023-04-03T13:17:25;16.10;38.40
78733;DHT22;68056;52.530;5.454;2023-04-03T13:19:54;16.30;38.80
78733;DHT22;68056;52.530;5.454;2023-04-03T13:22:38;16.40;38.20
78733;DHT22;68056;52.530;5.454;2023-04-03T13:25:11;16.20;38.20
78733;DHT22;68056;52.530;5.454;2023-04-03T13:27:39;16.10;38.30
78733;DHT22;68056;52.530;5.454;2023-04-03T13:30:29;16.10;38.50
78733;DHT22;68056;52.530;5.454;2023-04-03T13:32:57;16.10;38.90
78733;DHT22;68056;52.530;5.454;2023-04-03T13:35:44;16.40;39.10
78733;DHT22;68056;52.530;5.454;2023-04-03T13:40:54;16.50;38.90
78733;DHT22;68056;52.530;5.454;2023-04-03T13:43:26;16.50;38.70
78733;DHT22;68056;52.530;5.454;2023-04-03T13:45:59;16.20;38.70
78733;DHT22;68056;52.530;5.454;2023-04-03T13:48:26;16.00;38.90
78733;DHT22;68056;52.530;5.454;2023-04-03T13:50:59;16.20;39.10
78733;DHT22;68056;52.530;5.454;2023-04-03T13:53:27;16.40;38.60
78733;DHT22;68056;52.530;5.454;2023-04-03T13:56:08;16.20;38.30
78733;DHT22;68056;52.530;5.454;2023-04-03T13:58:36;16.10;38.50
78733;DHT22;68056;52.530;5.454;2023-04-03T14:01:10;16.00;38.60
78733;DHT22;68056;52.530;5.454;2023-04-03T14:06:16;16.10;39.00
78733;DHT22;68056;52.530;5.454;2023-04-03T14:08:43;16.10;39.00
78733;DHT22;68056;52.530;5.454;2023-04-03T14:11:29;16.30;39.20
78733;DHT22;68056;52.530;5.454;2023-04-03T14:13:58;16.40;39.10
78733;DHT22;68056;52.530;5.454;2023-04-03T14:16:30;16.40;39.10
78733;DHT22;68056;52.530;5.454;2023-04-03T14:18:55;16.40;39.00
78733;DHT22;68056;52.530;5.454;2023-04-03T14:21:21;16.40;38.80
78733;DHT22;68056;52.530;5.454;2023-04-03T14:23:47;16.10;38.90
78733;DHT22;68056;52.530;5.454;2023-04-03T14:26:23;16.10;39.00
78733;DHT22;68056;52.530;5.454;2023-04-03T14:28:51;16.00;38.70
78733;DHT22;68056;52.530;5.454;2023-04-03T14:31:20;16.00;39.00
78733;DHT22;68056;52.530;5.454;2023-04-03T14:33:46;16.00;39.00
78733;DHT22;68056;52.530;5.454;2023-04-03T14:36:18;15.90;38.80
78733;DHT22;68056;52.530;5.454;2023-04-03T14:38:45;15.60;38.50
78733;DHT22;68056;52.530;5.454;2023-04-03T14:41:18;15.30;38.80
78733;DHT22;68056;52.530;5.454;2023-04-03T14:43:45;15.30;39.00
78733;DHT22;68056;52.530;5.454;2023-04-03T14:46:16;15.30;39.20
78733;DHT22;68056;52.530;5.454;2023-04-03T14:48:43;15.50;39.20
78733;DHT22;68056;52.530;5.454;2023-04-03T14:51:13;15.60;39.40
78733;DHT22;68056;52.530;5.454;2023-04-03T14:53:41;15.60;39.50
78733;DHT22;68056;52.530;5.454;2023-04-03T14:56:19;15.50;39.50
78733;DHT22;68056;52.530;5.454;2023-04-03T14:58:47;15.30;39.20
78733;DHT22;68056;52.530;5.454;2023-04-03T15:01:16;15.10;39.30
78733;DHT22;68056;52.530;5.454;2023-04-03T15:03:42;15.00;39.30
78733;DHT22;68056;52.530;5.454;2023-04-03T15:06:18;14.70;39.00
78733;DHT22;68056;52.530;5.454;2023-04-03T15:08:46;14.40;39.40
78733;DHT22;68056;52.530;5.454;2023-04-03T15:11:12;14.30;39.90
78733;DHT22;68056;52.530;5.454;2023-04-03T15:13:39;14.40;39.90
78733;DHT22;68056;52.530;5.454;2023-04-03T15:16:06;14.40;39.70
78733;DHT22;68056;52.530;5.454;2023-04-03T15:18:38;14.30;39.30
78733;DHT22;68056;52.530;5.454;2023-04-03T15:21:04;14.00;39.40
78733;DHT22;68056;52.530;5.454;2023-04-03T15:23:30;13.90;39.30
78733;DHT22;68056;52.530;5.454;2023-04-03T15:25:56;13.70;39.30
78733;DHT22;68056;52.530;5.454;2023-04-03T15:28:36;13.50;39.30
78733;DHT22;68056;52.530;5.454;2023-04-03T15:31:03;13.30;39.50
78733;DHT22;68056;52.530;5.454;2023-04-03T15:33:29;13.30;39.70
78733;DHT22;68056;52.530;5.454;2023-04-03T15:35:58;13.30;39.80
78733;DHT22;68056;52.530;5.454;2023-04-03T15:38:24;13.30;40.00
78733;DHT22;68056;52.530;5.454;2023-04-03T15:40:49;13.30;40.20
78733;DHT22;68056;52.530;5.454;2023-04-03T15:43:15;13.20;40.40
78733;DHT22;68056;52.530;5.454;2023-04-03T15:45:42;13.10;40.60
78733;DHT22;68056;52.530;5.454;2023-04-03T15:48:08;13.10;40.90
78733;DHT22;68056;52.530;5.454;2023-04-03T15:50:34;13.00;41.10
78733;DHT22;68056;52.530;5.454;2023-04-03T15:53:01;12.90;41.20
78733;DHT22;68056;52.530;5.454;2023-04-03T15:55:32;12.80;41.30
78733;DHT22;68056;52.530;5.454;2023-04-03T15:57:58;12.70;41.20
78733;DHT22;68056;52.530;5.454;2023-04-03T16:00:25;12.50;41.20
78733;DHT22;68056;52.530;5.454;2023-04-03T16:02:55;12.50;41.60
78733;DHT22;68056;52.530;5.454;2023-04-03T16:05:21;12.40;41.80
78733;DHT22;68056;52.530;5.454;2023-04-03T16:07:47;12.20;42.10
78733;DHT22;68056;52.530;5.454;2023-04-03T16:10:14;12.10;42.50
78733;DHT22;68056;52.530;5.454;2023-04-03T16:12:40;12.10;42.80
78733;DHT22;68056;52.530;5.454;2023-04-03T16:15:06;12.10;43.00
78733;DHT22;68056;52.530;5.454;2023-04-03T16:17:33;12.00;43.20
78733;DHT22;68056;52.530;5.454;2023-04-03T16:19:59;11.90;43.00
78733;DHT22;68056;52.530;5.454;2023-04-03T16:22:26;11.70;43.20
78733;DHT22;68056;52.530;5.454;2023-04-03T16:24:52;11.60;43.00
78733;DHT22;68056;52.530;5.454;2023-04-03T16:27:19;11.50;43.00
78733;DHT22;68056;52.530;5.454;2023-04-03T16:29:45;11.40;43.20
78733;DHT22;68056;52.530;5.454;2023-04-03T16:32:11;11.20;43.40
78733;DHT22;68056;52.530;5.454;2023-04-03T16:34:37;11.10;43.50
78733;DHT22;68056;52.530;5.454;2023-04-03T16:37:06;11.10;43.80
78733;DHT22;68056;52.530;5.454;2023-04-03T16:39:34;11.00;43.70
78733;DHT22;68056;52.530;5.454;2023-04-03T16:42:00;10.90;43.90
78733;DHT22;68056;52.530;5.454;2023-04-03T16:44:25;10.90;44.10
78733;DHT22;68056;52.530;5.454;2023-04-03T16:46:51;10.90;44.20
78733;DHT22;68056;52.530;5.454;2023-04-03T16:49:17;10.80;44.20
78733;DHT22;68056;52.530;5.454;2023-04-03T16:51:43;10.70;44.30
78733;DHT22;68056;52.530;5.454;2023-04-03T16:54:08;10.70;44.30
78733;DHT22;68056;52.530;5.454;2023-04-03T16:56:36;10.60;44.50
78733;DHT22;68056;52.530;5.454;2023-04-03T16:59:02;10.50;44.40
78733;DHT22;68056;52.530;5.454;2023-04-03T17:01:27;10.50;44.50
78733;DHT22;68056;52.530;5.454;2023-04-03T17:03:53;10.40;44.80
78733;DHT22;68056;52.530;5.454;2023-04-03T17:06:20;10.40;44.80
78733;DHT22;68056;52.530;5.454;2023-04-03T17:08:49;10.40;44.80
78733;DHT22;68056;52.530;5.454;2023-04-03T17:11:16;10.30;45.00
78733;DHT22;68056;52.530;5.454;2023-04-03T17:13:42;10.30;44.80